26.6°F
Current conditions from King Hill
Updated every 5 minutes
 
  Monday December 22, 2014

Station Historical Data
Daily Summary for October 31, 2011 Units:  Metric    English   Both
« Previous Day
Next Day »
Daily Weekly Monthly Yearly Custom
  High: Low: Average:
Temperature: 10.3 °C 0.1 °C 5.3 °C
Dew Point: 0.1 °C -3.4 °C -1.9 °C
Humidity: 79% 41% 61%
Wind Speed: 16.1km/h 1.6km/h 6.4km/h
Wind Gust: 30.6km/h - -
Wind- - SSW
Pressure: 1027 hPa 1023.9 hPa -
Precipitation: 0 mm    
Historical Graphs
 
 
Tabular Data for October 31, 2011
Time Temperature Dew Point Pressure Wind Wind Speed Wind Gust Humidity Daily Rainfall
00:00 3.5 °C -1.7 °C 1023.9 hPa West 3.2 km/h 11.3 km/h 69% 0.5 mm
00:05 3.6 °C -1.6 °C 1023.9 hPa WSW 1.6 km/h 11.3 km/h 69% 0 mm
00:10 3.7 °C -1.5 °C 1024.3 hPa Calm   8 km/h 69% 0 mm
00:15 3.7 °C -1.6 °C 1024.3 hPa WSW 1.6 km/h 6.4 km/h 68% 0 mm
00:20 3.7 °C -1.4 °C 1024.3 hPa Calm   6.4 km/h 69% 0 mm
00:25 3.8 °C -1.6 °C 1024.3 hPa Calm   1.6 km/h 68% 0 mm
00:30 3.8 °C -1.4 °C 1024.3 hPa SW 1.6 km/h 8 km/h 69% 0 mm
00:35 3.8 °C -1.6 °C 1024.3 hPa Calm   8 km/h 68% 0 mm
00:40 3.8 °C -1.4 °C 1024.3 hPa WSW 1.6 km/h 8 km/h 69% 0 mm
00:45 3.8 °C -1.4 °C 1024.3 hPa Calm   8 km/h 69% 0 mm
00:50 3.7 °C -1.4 °C 1024.3 hPa Calm   4.8 km/h 69% 0 mm
00:55 3.6 °C -1.3 °C 1024.6 hPa Calm   4.8 km/h 70% 0 mm
01:00 3.6 °C -1.4 °C 1024.6 hPa Calm   4.8 km/h 70% 0 mm
01:05 3.4 °C -1.3 °C 1024.6 hPa SW 1.6 km/h 8 km/h 71% 0 mm
01:10 3.5 °C -1.3 °C 1024.6 hPa WSW 1.6 km/h 8 km/h 71% 0 mm
01:15 3.6 °C -1 °C 1024.6 hPa Calm   9.7 km/h 72% 0 mm
01:20 3.6 °C -0.9 °C 1024.6 hPa West 1.6 km/h 9.7 km/h 72% 0 mm
01:25 3.6 °C -1 °C 1024.6 hPa West 1.6 km/h 8 km/h 72% 0 mm
01:30 3.7 °C -0.9 °C 1024.6 hPa WSW 1.6 km/h 9.7 km/h 72% 0 mm
01:35 3.7 °C -0.8 °C 1024.6 hPa WSW 1.6 km/h 9.7 km/h 72% 0 mm
01:40 3.7 °C -0.7 °C 1024.6 hPa West 4.8 km/h 12.9 km/h 73% 0 mm
01:45 3.8 °C -0.6 °C 1024.6 hPa West 3.2 km/h 12.9 km/h 73% 0 mm
01:50 3.9 °C -0.5 °C 1024.6 hPa Calm   9.7 km/h 73% 0 mm
01:55 3.9 °C -0.5 °C 1024.6 hPa Calm   6.4 km/h 73% 0 mm
02:00 3.8 °C -0.6 °C 1024.6 hPa Calm   4.8 km/h 73% 0 mm
02:05 3.7 °C -0.7 °C 1024.9 hPa Calm   1.6 km/h 73% 0 mm
02:10 3.6 °C -0.7 °C 1024.9 hPa Calm   1.6 km/h 74% 0 mm
02:15 3.4 °C -0.9 °C 1024.9 hPa West 1.6 km/h 6.4 km/h 73% 0 mm
02:20 3.3 °C -1.1 °C 1024.9 hPa Calm   6.4 km/h 73% 0 mm
02:25 3.3 °C -1.1 °C 1024.9 hPa SW 1.6 km/h 6.4 km/h 73% 0 mm
02:30 3.2 °C -1.6 °C 1025.3 hPa SSW 1.6 km/h 9.7 km/h 71% 0 mm
02:35 3.3 °C -1.5 °C 1025.3 hPa SSW 1.6 km/h 9.7 km/h 71% 0 mm
02:40 3.2 °C -1.6 °C 1025.3 hPa Calm   9.7 km/h 71% 0 mm
02:45 3.1 °C -1.7 °C 1025.3 hPa SSW 1.6 km/h 9.7 km/h 71% 0 mm
02:50 3 °C -1.7 °C 1024.9 hPa SSW 1.6 km/h 9.7 km/h 71% 0 mm
02:55 2.9 °C -2 °C 1024.9 hPa Calm   9.7 km/h 70% 0 mm
03:00 2.9 °C -2.1 °C 1024.9 hPa SSW 1.6 km/h 4.8 km/h 70% 0 mm
03:05 2.8 °C -2.1 °C 1024.9 hPa SSW 1.6 km/h 8 km/h 70% 0 mm
03:10 2.7 °C -2.2 °C 1024.9 hPa SSW 1.6 km/h 8 km/h 70% 0 mm
03:15 2.5 °C -2.6 °C 1024.6 hPa Calm   8 km/h 69% 0 mm
03:20 2.2 °C -2.7 °C 1024.9 hPa Calm   4.8 km/h 70% 0 mm
03:25 1.8 °C -2.9 °C 1024.9 hPa Calm   4.8 km/h 71% 0 mm
03:30 1.3 °C -3 °C 1024.9 hPa Calm   4.8 km/h 73% 0 mm
03:40 0.7 °C -3.4 °C 1024.9 hPa Calm   3.2 km/h 74% 0 mm
03:45 0.3 °C -3.4 °C 1024.9 hPa Calm   1.6 km/h 76% 0 mm
03:50 0.1 °C -3.4 °C 1024.9 hPa SSW 1.6 km/h 4.8 km/h 77% 0 mm
03:55 0.2 °C -3.2 °C 1024.9 hPa Calm   4.8 km/h 78% 0 mm
04:00 0.4 °C -2.8 °C 1024.9 hPa Calm   4.8 km/h 79% 0 mm
04:05 0.8 °C -2.6 °C 1024.9 hPa Calm   4.8 km/h 78% 0 mm
04:10 1.2 °C -2.6 °C 1025.3 hPa SSW 1.6 km/h 6.4 km/h 76% 0 mm
04:15 1.3 °C -2.6 °C 1025.3 hPa Calm   6.4 km/h 75% 0 mm
04:20 1.4 °C -2.7 °C 1025.3 hPa Calm   4.8 km/h 74% 0 mm
04:25 1.4 °C -2.7 °C 1025.3 hPa SSW 3.2 km/h 8 km/h 74% 0 mm
04:30 1.4 °C -2.7 °C 1025.3 hPa SSW 1.6 km/h 8 km/h 74% 0 mm
04:35 1.6 °C -2.6 °C 1025.3 hPa SSW 3.2 km/h 8 km/h 74% 0 mm
04:40 1.7 °C -2.7 °C 1025.3 hPa SSW 3.2 km/h 9.7 km/h 73% 0 mm
04:45 1.8 °C -2.7 °C 1025.3 hPa SSW 3.2 km/h 9.7 km/h 72% 0 mm
04:50 1.8 °C -2.7 °C 1025.3 hPa SW 3.2 km/h 11.3 km/h 72% 0 mm
04:55 1.8 °C -2.7 °C 1025.6 hPa SW 4.8 km/h 11.3 km/h 72% 0 mm
05:00 1.8 °C -2.7 °C 1025.6 hPa SSW 3.2 km/h 11.3 km/h 72% 0 mm
05:05 1.9 °C -2.6 °C 1025.6 hPa SSW 3.2 km/h 11.3 km/h 72% 0 mm
05:10 1.9 °C -2.6 °C 1025.6 hPa SSW 3.2 km/h 11.3 km/h 72% 0 mm
05:15 1.9 °C -2.6 °C 1025.6 hPa SSW 3.2 km/h 11.3 km/h 72% 0 mm
05:20 1.9 °C -2.6 °C 1025.6 hPa SSW 1.6 km/h 11.3 km/h 72% 0 mm
05:25 1.9 °C -2.6 °C 1025.6 hPa SW 1.6 km/h 9.7 km/h 72% 0 mm
05:30 1.9 °C -2.6 °C 1025.6 hPa SW 1.6 km/h 8 km/h 72% 0 mm
05:35 1.9 °C -2.4 °C 1025.6 hPa SW 1.6 km/h 9.7 km/h 73% 0 mm
05:40 1.8 °C -2.6 °C 1025.6 hPa SW 3.2 km/h 9.7 km/h 73% 0 mm
05:50 1.8 °C -2.6 °C 1025.6 hPa SSW 1.6 km/h 9.7 km/h 73% 0 mm
05:55 1.8 °C -2.6 °C 1025.6 hPa SSW 1.6 km/h 6.4 km/h 73% 0 mm
06:00 1.9 °C -2.4 °C 1025.6 hPa SW 3.2 km/h 9.7 km/h 73% 0 mm
06:05 2.1 °C -2.4 °C 1025.6 hPa SSW 3.2 km/h 9.7 km/h 72% 0 mm
06:10 2.1 °C -2.4 °C 1026 hPa SW 3.2 km/h 9.7 km/h 72% 0 mm
06:15 2.1 °C -2.4 °C 1026 hPa SSW 3.2 km/h 9.7 km/h 72% 0 mm
06:20 2.1 °C -2.4 °C 1026 hPa SSW 4.8 km/h 9.7 km/h 72% 0 mm
06:25 2.1 °C -2.4 °C 1026 hPa SSW 1.6 km/h 9.7 km/h 72% 0 mm
06:30 1.9 °C -2.4 °C 1026 hPa SSW 1.6 km/h 8 km/h 73% 0 mm
06:35 1.8 °C -2.5 °C 1026 hPa SSW 4.8 km/h 6.4 km/h 73% 0 mm
06:45 1.5 °C -2.8 °C 1026 hPa SSW 4.8 km/h 8 km/h 73% 0 mm
06:50 1.3 °C -2.8 °C 1026 hPa SSW 4.8 km/h 9.7 km/h 74% 0 mm
06:55 1.3 °C -2.8 °C 1026 hPa SSW 3.2 km/h 9.7 km/h 74% 0 mm
06:59 1.2 °C -2.8 °C 1026 hPa SSW 4.8 km/h 9.7 km/h 75% 0 mm
07:05 1.2 °C -2.8 °C 1026 hPa SSW 3.2 km/h 9.7 km/h 75% 0 mm
07:10 1.3 °C -2.6 °C 1026 hPa SSW 4.8 km/h 9.7 km/h 75% 0 mm
07:15 1.3 °C -2.8 °C 1026.3 hPa SW 3.2 km/h 9.7 km/h 74% 0 mm
07:19 1.3 °C -2.7 °C 1026.3 hPa SSW 4.8 km/h 9.7 km/h 75% 0 mm
07:25 1.2 °C -2.8 °C 1026.3 hPa SSW 4.8 km/h 9.7 km/h 75% 0 mm
07:29 1 °C -2.9 °C 1026.3 hPa SSW 3.2 km/h 9.7 km/h 75% 0 mm
07:35 0.9 °C -3.1 °C 1026.3 hPa SSW 1.6 km/h 8 km/h 75% 0 mm
07:40 0.8 °C -2.9 °C 1026.3 hPa SSW 1.6 km/h 9.7 km/h 76% 0 mm
07:45 0.8 °C -2.9 °C 1026.3 hPa SSW 3.2 km/h 9.7 km/h 76% 0 mm
07:50 0.8 °C -2.9 °C 1026.3 hPa Calm   9.7 km/h 76% 0 mm
07:55 0.9 °C -2.8 °C 1026.6 hPa SW 3.2 km/h 12.9 km/h 76% 0 mm
07:59 1.2 °C -2.6 °C 1026.6 hPa SSW 4.8 km/h 12.9 km/h 76% 0 mm
08:05 1.3 °C -2.4 °C 1026.6 hPa SSW 3.2 km/h 11.3 km/h 76% 0 mm
08:10 1.6 °C -2.3 °C 1026.6 hPa SW 3.2 km/h 8 km/h 75% 0 mm
08:15 1.8 °C -2.3 °C 1026.6 hPa SSW 6.4 km/h 11.3 km/h 74% 0 mm
08:19 2 °C -2.2 °C 1026.6 hPa SSW 6.4 km/h 11.3 km/h 74% 0 mm
08:25 2.1 °C -2.1 °C 1026.6 hPa SSW 4.8 km/h 11.3 km/h 74% 0 mm
08:30 2.3 °C -2.1 °C 1026.6 hPa SSW 4.8 km/h 11.3 km/h 73% 0 mm
08:35 2.4 °C -1.9 °C 1026.6 hPa SW 3.2 km/h 11.3 km/h 73% 0 mm
08:40 2.4 °C -2.1 °C 1026.6 hPa SSW 6.4 km/h 11.3 km/h 72% 0 mm
08:45 2.6 °C -2 °C 1027 hPa SSW 6.4 km/h 12.9 km/h 72% 0 mm
08:50 2.6 °C -2.1 °C 1027 hPa SSW 6.4 km/h 12.9 km/h 71% 0 mm
08:55 2.7 °C -2 °C 1026.6 hPa SW 8 km/h 14.5 km/h 71% 0 mm
09:00 2.8 °C -1.9 °C 1026.6 hPa SSW 4.8 km/h 14.5 km/h 71% 0 mm
09:05 2.8 °C -1.9 °C 1026.6 hPa SSW 4.8 km/h 16.1 km/h 71% 0 mm
09:10 2.9 °C -2 °C 1026.6 hPa SSW 9.7 km/h 16.1 km/h 70% 0 mm
09:15 3.1 °C -1.7 °C 1026.6 hPa SSW 4.8 km/h 16.1 km/h 71% 0 mm
09:20 3.2 °C -1.7 °C 1026.6 hPa SW 9.7 km/h 17.7 km/h 70% 0 mm
09:25 3.4 °C -1.5 °C 1026.6 hPa SSW 9.7 km/h 17.7 km/h 70% 0 mm
09:30 3.8 °C -1.3 °C 1026.6 hPa SSW 4.8 km/h 17.7 km/h 69% 0 mm
09:35 4.2 °C -1.2 °C 1026.6 hPa SSW 4.8 km/h 19.3 km/h 68% 0 mm
09:40 4.6 °C -1.2 °C 1026.6 hPa SW 9.7 km/h 19.3 km/h 66% 0 mm
09:45 4.7 °C -1.1 °C 1026.6 hPa SSW 6.4 km/h 17.7 km/h 66% 0 mm
09:50 5.1 °C -1 °C 1026.6 hPa SSW 4.8 km/h 14.5 km/h 65% 0 mm
09:55 5.2 °C -1.1 °C 1026.6 hPa SW 8 km/h 14.5 km/h 64% 0 mm
10:00 5.3 °C -1 °C 1026.6 hPa SW 8 km/h 14.5 km/h 64% 0 mm
10:05 5.2 °C -1.2 °C 1026.6 hPa SW 9.7 km/h 16.1 km/h 63% 0 mm
10:10 5.5 °C -1 °C 1026.6 hPa SW 6.4 km/h 16.1 km/h 63% 0 mm
10:15 5.8 °C -0.9 °C 1026.6 hPa SSW 4.8 km/h 14.5 km/h 62% 0 mm
10:20 5.9 °C -1 °C 1026.6 hPa SSW 6.4 km/h 17.7 km/h 61% 0 mm
10:25 6.2 °C -0.7 °C 1026.3 hPa SSW 4.8 km/h 17.7 km/h 61% 0 mm
10:30 6.5 °C -0.9 °C 1026.3 hPa SSW 8 km/h 19.3 km/h 59% 0 mm
10:35 6.6 °C -0.9 °C 1026.3 hPa SW 9.7 km/h 19.3 km/h 59% 0 mm
10:40 6.5 °C -0.9 °C 1026.3 hPa SW 11.3 km/h 16.1 km/h 59% 0 mm
10:45 6.6 °C -0.8 °C 1026.3 hPa SSW 8 km/h 16.1 km/h 59% 0 mm
10:50 6.8 °C -0.6 °C 1026.3 hPa SW 6.4 km/h 16.1 km/h 59% 0 mm
10:55 6.9 °C -0.8 °C 1026.3 hPa SW 8 km/h 17.7 km/h 58% 0 mm
11:00 6.9 °C -1.1 °C 1026.3 hPa SW 9.7 km/h 20.9 km/h 57% 0 mm
11:05 6.9 °C -1.1 °C 1026.3 hPa SSW 9.7 km/h 20.9 km/h 57% 0 mm
11:10 7.1 °C -0.9 °C 1026.3 hPa SSW 9.7 km/h 17.7 km/h 57% 0 mm
11:15 7.3 °C -0.4 °C 1026.3 hPa SW 4.8 km/h 16.1 km/h 58% 0 mm
11:20 7.8 °C 0.1 °C 1026.3 hPa South 4.8 km/h 14.5 km/h 58% 0 mm
11:25 8.1 °C -0.2 °C 1026.3 hPa SSW 3.2 km/h 16.1 km/h 56% 0 mm
11:29 8.4 °C -0.4 °C 1026.3 hPa SSW 6.4 km/h 16.1 km/h 54% 0 mm
11:35 8.2 °C -0.6 °C 1026.3 hPa SSW 8 km/h 17.7 km/h 54% 0 mm
11:40 8.4 °C -0.4 °C 1026.3 hPa South 8 km/h 17.7 km/h 54% 0 mm
11:45 8.4 °C -0.6 °C 1026.3 hPa SW 9.7 km/h 22.5 km/h 53% 0 mm
11:50 8.3 °C -0.7 °C 1026.3 hPa SW 9.7 km/h 22.5 km/h 53% 0 mm
11:55 8.6 °C -0.7 °C 1026.3 hPa SW 8 km/h 19.3 km/h 52% 0 mm
11:59 8.7 °C -0.6 °C 1026.3 hPa SSW 9.7 km/h 17.7 km/h 52% 0 mm
12:05 8.9 °C -0.7 °C 1026.3 hPa SSW 9.7 km/h 19.3 km/h 51% 0 mm
12:10 8.8 °C -1 °C 1026.3 hPa SSW 9.7 km/h 19.3 km/h 50% 0 mm
12:15 8.9 °C -0.9 °C 1026 hPa SSW 11.3 km/h 19.3 km/h 50% 0 mm
12:20 8.9 °C -0.9 °C 1026 hPa SSW 11.3 km/h 19.3 km/h 50% 0 mm
12:25 9.2 °C -0.7 °C 1026 hPa SW 8 km/h 19.3 km/h 50% 0 mm
12:30 9.4 °C -0.8 °C 1026 hPa SSW 9.7 km/h 19.3 km/h 49% 0 mm
12:40 9.6 °C -0.9 °C 1025.6 hPa SSW 4.8 km/h 19.3 km/h 48% 0 mm
12:45 9.8 °C -0.4 °C 1025.6 hPa SSW 8 km/h 19.3 km/h 49% 0 mm
12:50 9.8 °C -1 °C 1025.6 hPa SW 6.4 km/h 19.3 km/h 47% 0 mm
12:54 9.7 °C -0.5 °C 1025.6 hPa SW 9.7 km/h 22.5 km/h 49% 0 mm
12:59 9.7 °C -1.7 °C 1025.6 hPa SSW 11.3 km/h 22.5 km/h 45% 0 mm
13:05 9.7 °C -1.7 °C 1025.3 hPa SSW 11.3 km/h 22.5 km/h 45% 0 mm
13:10 9.8 °C -1.2 °C 1025.3 hPa SW 9.7 km/h 20.9 km/h 46% 0 mm
13:14 9.8 °C -1.6 °C 1025.3 hPa SW 8 km/h 20.9 km/h 45% 0 mm
13:20 9.9 °C -1.8 °C 1025.3 hPa SW 11.3 km/h 19.3 km/h 44% 0 mm
13:25 9.9 °C -1.2 °C 1025.3 hPa WSW 6.4 km/h 29 km/h 46% 0 mm
13:30 10 °C -1.4 °C 1025.3 hPa SSW 6.4 km/h 29 km/h 45% 0 mm
13:35 10.1 °C -1.9 °C 1024.9 hPa WSW 9.7 km/h 16.1 km/h 43% 0 mm
13:40 10.3 °C -1.8 °C 1024.9 hPa SW 9.7 km/h 16.1 km/h 43% 0 mm
13:45 10.1 °C -2.6 °C 1024.9 hPa SSW 8 km/h 16.1 km/h 41% 0 mm
13:50 10.1 °C -1.9 °C 1024.9 hPa SW 8 km/h 17.7 km/h 43% 0 mm
13:55 10.2 °C -1.5 °C 1024.9 hPa SW 9.7 km/h 17.7 km/h 44% 0 mm
14:00 10.2 °C -1.6 °C 1024.6 hPa SSW 8 km/h 19.3 km/h 44% 0 mm
14:05 9.9 °C -1.4 °C 1024.6 hPa SW 9.7 km/h 19.3 km/h 45% 0 mm
14:10 9.7 °C -1.4 °C 1024.6 hPa SW 6.4 km/h 19.3 km/h 46% 0 mm
14:14 9.6 °C -0.9 °C 1024.6 hPa SSW 6.4 km/h 19.3 km/h 48% 0 mm
14:20 9.8 °C -1.3 °C 1024.6 hPa WSW 11.3 km/h 19.3 km/h 46% 0 mm
14:25 10 °C -0.8 °C 1024.6 hPa SW 8 km/h 16.1 km/h 47% 0 mm
14:30 10.2 °C -1.2 °C 1024.6 hPa SW 3.2 km/h 16.1 km/h 45% 0 mm
14:34 10.1 °C -1.3 °C 1024.6 hPa SSW 11.3 km/h 20.9 km/h 45% 0 mm
14:40 9.9 °C -1.8 °C 1024.6 hPa SSW 11.3 km/h 22.5 km/h 44% 0 mm
14:45 9.6 °C -2.1 °C 1024.6 hPa SSW 14.5 km/h 22.5 km/h 44% 0 mm
14:49 9.5 °C -1.6 °C 1024.6 hPa SW 8 km/h 22.5 km/h 46% 0 mm
14:54 9.5 °C -1.6 °C 1024.6 hPa SW 8 km/h 19.3 km/h 46% 0 mm
15:00 9.4 °C -1.9 °C 1024.6 hPa SSW 14.5 km/h 22.5 km/h 45% 0 mm
15:05 9.3 °C -1.7 °C 1024.6 hPa SSW 11.3 km/h 22.5 km/h 46% 0 mm
15:09 9.4 °C -1.7 °C 1024.6 hPa SSW 12.9 km/h 25.7 km/h 46% 0 mm
15:14 9.4 °C -1.9 °C 1024.6 hPa SW 11.3 km/h 25.7 km/h 45% 0 mm
15:20 9.3 °C -2.6 °C 1024.6 hPa SSW 12.9 km/h 30.6 km/h 43% 0 mm
15:25 9.2 °C -3.1 °C 1024.6 hPa SW 14.5 km/h 30.6 km/h 42% 0 mm
15:30 9.3 °C -3.3 °C 1024.6 hPa SW 14.5 km/h 27.4 km/h 41% 0 mm
15:34 9.2 °C -3.3 °C 1024.6 hPa SSW 16.1 km/h 25.7 km/h 41% 0 mm
15:39 9.1 °C -2.8 °C 1024.6 hPa SSW 12.9 km/h 30.6 km/h 43% 0 mm
15:45 9.2 °C -3.1 °C 1024.6 hPa SW 14.5 km/h 30.6 km/h 42% 0 mm
15:49 9.3 °C -2.7 °C 1024.6 hPa SW 12.9 km/h 24.1 km/h 43% 0 mm
15:55 9.2 °C -2.7 °C 1024.6 hPa SW 14.5 km/h 22.5 km/h 43% 0 mm
15:59 9.1 °C -3.2 °C 1024.6 hPa SSW 11.3 km/h 25.7 km/h 42% 0 mm
16:04 8.8 °C -2.8 °C 1024.6 hPa SSW 8 km/h 25.7 km/h 44% 0 mm
16:10 8.4 °C -2.8 °C 1024.6 hPa SW 6.4 km/h 24.1 km/h 45% 0 mm
16:15 8.3 °C -2.9 °C 1024.6 hPa SSW 8 km/h 24.1 km/h 45% 0 mm
16:19 8.1 °C -2.9 °C 1024.6 hPa SSW 12.9 km/h 24.1 km/h 46% 0 mm
16:25 7.9 °C -2.9 °C 1024.6 hPa SSW 11.3 km/h 22.5 km/h 46% 0 mm
16:35 7.8 °C -2.5 °C 1024.6 hPa SW 3.2 km/h 16.1 km/h 48% 0 mm
16:45 7.7 °C -2.7 °C 1024.6 hPa South 6.4 km/h 17.7 km/h 48% 0 mm
16:49 7.6 °C -3 °C 1024.6 hPa SSW 6.4 km/h 16.1 km/h 47% 0 mm
16:54 7.6 °C -3.3 °C 1024.6 hPa SW 9.7 km/h 19.3 km/h 46% 0 mm
16:59 7.4 °C -3.2 °C 1024.6 hPa SSW 3.2 km/h 19.3 km/h 47% 0 mm
17:05 7.4 °C -3.2 °C 1024.6 hPa SSW 3.2 km/h 19.3 km/h 47% 0 mm
17:10 7.3 °C -3 °C 1024.6 hPa SSW 3.2 km/h 19.3 km/h 48% 0 mm
17:14 7.2 °C -3.1 °C 1024.6 hPa SSW 1.6 km/h 16.1 km/h 48% 0 mm
17:19 7.2 °C -2.8 °C 1024.6 hPa SW 6.4 km/h 16.1 km/h 49% 0 mm
17:25 7.1 °C -2.9 °C 1024.6 hPa SSW 6.4 km/h 14.5 km/h 49% 0 mm
17:30 7 °C -3 °C 1024.6 hPa SSW 3.2 km/h 12.9 km/h 49% 0 mm
17:35 6.9 °C -2.8 °C 1024.6 hPa SSW 1.6 km/h 12.9 km/h 50% 0 mm
17:40 6.8 °C -2.6 °C 1024.6 hPa SW 8 km/h 12.9 km/h 51% 0 mm
17:45 6.8 °C -2.7 °C 1024.6 hPa SSW 1.6 km/h 11.3 km/h 51% 0 mm
17:50 6.7 °C -2.5 °C 1024.9 hPa SSW 1.6 km/h 11.3 km/h 52% 0 mm
17:54 6.6 °C -2.6 °C 1024.9 hPa SSW 1.6 km/h 11.3 km/h 52% 0 mm
18:00 6.6 °C -2.3 °C 1024.9 hPa SSW 1.6 km/h 11.3 km/h 53% 0 mm
18:04 6.5 °C -2.4 °C 1024.9 hPa SSW 4.8 km/h 11.3 km/h 53% 0 mm
18:10 6.5 °C -2.4 °C 1024.9 hPa SW 1.6 km/h 12.9 km/h 53% 0 mm
18:15 6.4 °C -2.2 °C 1024.9 hPa SW 1.6 km/h 12.9 km/h 54% 0 mm
18:19 6.3 °C -2.3 °C 1024.9 hPa SSW 3.2 km/h 11.3 km/h 54% 0 mm
18:25 6.3 °C -2.1 °C 1024.9 hPa SSW 1.6 km/h 9.7 km/h 55% 0 mm
18:30 6.2 °C -1.9 °C 1024.9 hPa SSW 3.2 km/h 11.3 km/h 56% 0 mm
18:34 6.1 °C -2.1 °C 1024.9 hPa SSW 3.2 km/h 11.3 km/h 56% 0 mm
18:39 6.2 °C -1.7 °C 1025.3 hPa SSW 4.8 km/h 12.9 km/h 57% 0 mm
18:45 6.3 °C -1.8 °C 1025.3 hPa SSW 8 km/h 17.7 km/h 56% 0 mm
18:50 6.4 °C -1.8 °C 1025.3 hPa SSW 8 km/h 17.7 km/h 56% 0 mm
18:54 6.6 °C -1.6 °C 1025.3 hPa SSW 6.4 km/h 17.7 km/h 56% 0 mm
19:00 6.6 °C -1.6 °C 1025.3 hPa SSW 6.4 km/h 17.7 km/h 56% 0 mm
19:04 6.6 °C -1.6 °C 1025.3 hPa SSW 3.2 km/h 17.7 km/h 56% 0 mm
19:09 6.5 °C -1.7 °C 1025.3 hPa SW 4.8 km/h 17.7 km/h 56% 0 mm
19:15 6.4 °C -1.7 °C 1025.3 hPa SSW 6.4 km/h 17.7 km/h 56% 0 mm
19:20 6.4 °C -1.7 °C 1025.3 hPa SSW 6.4 km/h 16.1 km/h 56% 0 mm
19:24 6.4 °C -1.7 °C 1025.3 hPa SW 4.8 km/h 16.1 km/h 56% 0 mm
19:30 6.4 °C -1.8 °C 1025.3 hPa SSW 8 km/h 14.5 km/h 56% 0 mm
19:39 6.3 °C -1.6 °C 1025.3 hPa SSW 4.8 km/h 16.1 km/h 57% 0 mm
19:45 6.3 °C -1.6 °C 1025.3 hPa SSW 8 km/h 16.1 km/h 57% 0 mm
19:49 6.3 °C -1.6 °C 1025.3 hPa SW 8 km/h 19.3 km/h 57% 0 mm
19:54 6.3 °C -1.6 °C 1025.3 hPa SSW 9.7 km/h 19.3 km/h 57% 0 mm
19:59 6.3 °C -1.6 °C 1025.3 hPa SSW 11.3 km/h 25.7 km/h 57% 0 mm
20:04 6.3 °C -1.6 °C 1025.3 hPa SSW 8 km/h 25.7 km/h 57% 0 mm
20:10 6.3 °C -1.6 °C 1025.3 hPa SSW 8 km/h 27.4 km/h 57% 0 mm
20:15 6.3 °C -1.8 °C 1025.3 hPa SSW 8 km/h 27.4 km/h 56% 0 mm
20:19 6.3 °C -1.6 °C 1025.3 hPa SSW 11.3 km/h 24.1 km/h 57% 0 mm
20:25 6.3 °C -1.6 °C 1025.3 hPa SSW 11.3 km/h 22.5 km/h 57% 0 mm
20:30 6.3 °C -1.6 °C 1025.3 hPa SSW 11.3 km/h 22.5 km/h 57% 0 mm
20:34 6.2 °C -1.7 °C 1025.3 hPa SSW 11.3 km/h 22.5 km/h 57% 0 mm
20:45 6.2 °C -1.7 °C 1025.3 hPa SSW 6.4 km/h 22.5 km/h 57% 0 mm
20:50 6.2 °C -1.7 °C 1025.3 hPa SSW 8 km/h 22.5 km/h 57% 0 mm
20:54 6.2 °C -1.7 °C 1025.3 hPa SSW 11.3 km/h 30.6 km/h 57% 0 mm
20:59 6.2 °C -1.7 °C 1025.3 hPa SSW 11.3 km/h 30.6 km/h 57% 0 mm
21:05 6.2 °C -1.7 °C 1025.3 hPa SSW 12.9 km/h 27.4 km/h 57% 0 mm
21:10 6.2 °C -1.7 °C 1025.3 hPa SSW 8 km/h 27.4 km/h 57% 0 mm
21:14 6.2 °C -1.7 °C 1025.3 hPa SSW 11.3 km/h 20.9 km/h 57% 0 mm
21:19 6.2 °C -1.7 °C 1025.3 hPa SSW 9.7 km/h 20.9 km/h 57% 0 mm
21:25 6.1 °C -1.8 °C 1025.3 hPa SW 11.3 km/h 19.3 km/h 57% 0 mm
21:30 6.1 °C -1.6 °C 1025.3 hPa SSW 9.7 km/h 19.3 km/h 58% 0 mm
21:34 6.1 °C -1.8 °C 1025.3 hPa SW 11.3 km/h 25.7 km/h 57% 0 mm
21:40 6.1 °C -1.8 °C 1025.3 hPa SSW 6.4 km/h 25.7 km/h 57% 0 mm
21:44 6.1 °C -1.8 °C 1025.3 hPa SSW 12.9 km/h 29 km/h 57% 0 mm
21:49 6.2 °C -1.9 °C 1025.3 hPa SW 14.5 km/h 29 km/h 56% 0 mm
21:54 6.2 °C -1.9 °C 1025.3 hPa SW 11.3 km/h 29 km/h 56% 0 mm
21:59 6.2 °C -1.7 °C 1025.3 hPa SSW 9.7 km/h 25.7 km/h 57% 0 mm
22:05 6.2 °C -1.7 °C 1025.6 hPa SSW 9.7 km/h 25.7 km/h 57% 0 mm
22:10 6.1 °C -1.8 °C 1025.6 hPa SSW 9.7 km/h 24.1 km/h 57% 0 mm
22:14 6 °C -1.9 °C 1025.6 hPa SSW 6.4 km/h 22.5 km/h 57% 0 mm
22:19 5.8 °C -2.1 °C 1025.6 hPa SSW 6.4 km/h 22.5 km/h 57% 0 mm
22:25 5.8 °C -2.1 °C 1025.3 hPa SW 9.7 km/h 20.9 km/h 57% 0 mm
22:34 5.7 °C -1.9 °C 1025.3 hPa SSW 4.8 km/h 16.1 km/h 58% 0 mm
22:40 5.7 °C -1.9 °C 1025.3 hPa SSW 9.7 km/h 17.7 km/h 58% 0 mm
22:44 5.7 °C -1.9 °C 1025.6 hPa SSW 8 km/h 17.7 km/h 58% 0 mm
22:49 5.6 °C -2 °C 1025.6 hPa SSW 9.7 km/h 17.7 km/h 58% 0 mm
22:54 5.6 °C -2 °C 1025.6 hPa SSW 8 km/h 17.7 km/h 58% 0 mm
23:00 5.6 °C -2 °C 1025.6 hPa SSW 6.4 km/h 17.7 km/h 58% 0 mm
23:04 5.6 °C -2 °C 1025.6 hPa SSW 6.4 km/h 14.5 km/h 58% 0 mm
23:09 5.6 °C -2 °C 1025.6 hPa SSW 8 km/h 16.1 km/h 58% 0 mm
23:14 5.6 °C -2 °C 1025.6 hPa SW 6.4 km/h 17.7 km/h 58% 0 mm
23:20 5.6 °C -1.8 °C 1025.3 hPa SSW 1.6 km/h 17.7 km/h 59% 0 mm
23:24 5.4 °C -1.9 °C 1025.3 hPa SSW 6.4 km/h 12.9 km/h 59% 0 mm
23:29 5.4 °C -2 °C 1025.3 hPa SSW 6.4 km/h 12.9 km/h 59% 0 mm
23:35 5.4 °C -2 °C 1025.3 hPa SSW 3.2 km/h 12.9 km/h 59% 0 mm
23:39 5.3 °C -1.8 °C 1025.3 hPa SSW 4.8 km/h 12.9 km/h 60% 0 mm
23:45 5.2 °C -1.9 °C 1025.3 hPa SSW 3.2 km/h 11.3 km/h 60% 0 mm
23:49 5.2 °C -1.9 °C 1025.3 hPa SSW 3.2 km/h 11.3 km/h 60% 0 mm
23:55 5.1 °C -2 °C 1025.3 hPa SSW 3.2 km/h 11.3 km/h 60% 0 mm
23:59 5.2 °C -1.9 °C 1025.3 hPa SW 4.8 km/h 16.1 km/h 60% 0 mm
Westford Weather
Compliments of Weather Underground

 
 
Current Radar Loop:

Copyright © WestfordWeather.net 2007-2014. All rights reserved.